Jonesville, Florida
Current Conditions -  °F | °C
As of 9:53 AM on Saturday 20 Dec 2014 (Local Time) from KGNV Reporting Station
Scattered Clouds Scattered Clouds  
Wind Chill: 62°   Ceiling: Unl
Heat Index: 62°   Visibility: 10mi
Dew Point: 47°   Wind: 9mph
Humidity: 58%   Direction: 60°ENE
Pressure: 30.14"   Gusts: NA
Location:  29.645°N, 82.5949°W
Report Text: KGNV 201453Z 06008KT 10SM SCT095 17/08 A3014 RMK AO2 SLP205 T01670083 50008
Loading
Personal Weather Stations






























Interactive Weather Map New forecast layout! Learn more

10-Day Weather Forecast

Advertisements
Track Severe Weather on mobile